Heroic Leader — C6ZD2 — position and weather

sailwx.info

Track history (hours):
 
Tides and Currents Weather Stations Pressure Air Temp Water Temp Dewpoint Dewpoint Depression Visibility Wind Speed Wind Dir Waves Ship Positions

Heroic Leader

Last reported at 2014-Sep-24 04:28 UTC. Time now 2014-Oct-25 03:38 UTC.
Position N 29°25' W 094°49'.
Warning: this ship's position is 30 days out of date.

Length 200 m; draft 9.5 m.

Type: Cargo ship. MMSI: 311052700.

Date/timePositionNaut miles runAvg speedWind from/ knotsBaromVisibWave heightAir tempDewpointWater temp
2014-Sep-24 04:28N 29°25' W 094°49'1112.6
2014-Sep-24 03:33N 29°35' W 094°56'1110.6
2014-Sep-24 02:33N 29°44' W 095°02'6 6.1
2014-Sep-24 01:33N 29°44' W 095°09'6 5.7
2014-Sep-24 00:33N 29°44' W 095°15'9 0.5
2014-Sep-23 05:33N 29°46' W 095°05'9 8.5
2014-Sep-23 04:33N 29°39' W 094°58'1313.3
2014-Sep-23 03:33N 29°28' W 094°51'1211.9
2014-Sep-23 02:33N 29°20' W 094°41'19 1.9
2014-Sep-22 16:32N 29°10' W 094°23'  
2014-Sep-19 23:33N 25°20' W 079°60'2014.7
2014-Sep-19 22:10N 25°40' W 079°55'913.9
2014-Sep-19 21:31N 25°49' W 079°53'1313.2
2014-Sep-19 20:33N 26°02' W 079°51'1313.1
2014-Sep-19 19:33N 26°15' W 079°50'1212.4
2014-Sep-19 18:33N 26°27' W 079°49'1212.4
2014-Sep-19 17:33N 26°40' W 079°48'1211.9
2014-Sep-19 16:33N 26°52' W 079°48'1211.9
2014-Sep-19 15:33N 27°03' W 079°50'  
2014-Sep-16 15:09N 36°48' W 075°47'1015.9
2014-Sep-16 14:32N 36°55' W 075°56'1414.5
2014-Sep-16 13:33N 37°06' W 076°07'10915.6
2014-Sep-16 06:33N 38°54' W 076°24'1313.0
2014-Sep-16 05:33N 39°07' W 076°24'10 9.9
2014-Sep-16 04:33N 39°14' W 076°33'1 0.9
2014-Sep-16 03:32N 39°15' W 076°32'0 0.0
2014-Sep-16 02:32N 39°15' W 076°32'0 0.0
2014-Sep-16 01:32N 39°15' W 076°32'0 0.0
2014-Sep-16 00:32N 39°15' W 076°32'0 0.0
2014-Sep-15 23:32N 39°15' W 076°32'0 0.0
2014-Sep-15 22:32N 39°15' W 076°32'0 0.0
2014-Sep-15 21:32N 39°15' W 076°32'0 0.0
2014-Sep-15 20:31N 39°15' W 076°32'0 0.0
2014-Sep-15 19:32N 39°15' W 076°32'0 0.0
2014-Sep-15 18:26N 39°15' W 076°32'0 0.0
2014-Sep-15 17:26N 39°15' W 076°32'0 0.0
2014-Sep-15 16:31N 39°15' W 076°32'0 0.0
2014-Sep-15 15:32N 39°15' W 076°32'0 0.0
2014-Sep-15 14:31N 39°15' W 076°32'0 0.0
2014-Sep-15 13:31N 39°15' W 076°32'0 0.0
2014-Sep-15 12:31N 39°15' W 076°32'0 0.0
2014-Sep-15 11:31N 39°15' W 076°32'0 0.0
2014-Sep-15 10:31N 39°15' W 076°32'0 0.0
2014-Sep-15 09:31N 39°15' W 076°32'0 0.0
2014-Sep-15 08:31N 39°15' W 076°32'0 0.0
2014-Sep-15 07:31N 39°15' W 076°32'0 0.0
2014-Sep-15 06:31N 39°15' W 076°32'0 0.0
2014-Sep-15 05:31N 39°15' W 076°32'0 0.0
2014-Sep-15 04:31N 39°15' W 076°32'0 0.0
2014-Sep-15 03:31N 39°15' W 076°32'0 0.0
2014-Sep-15 02:32N 39°15' W 076°32'0 0.0
2014-Sep-15 01:31N 39°15' W 076°32'0 0.0
2014-Sep-15 00:31N 39°15' W 076°32'0 0.0
2014-Sep-14 23:31N 39°15' W 076°32'0 0.0
2014-Sep-14 22:31N 39°15' W 076°32'0 0.0
2014-Sep-14 21:31N 39°15' W 076°32'0 0.0
2014-Sep-14 20:31N 39°15' W 076°32'0 0.0
2014-Sep-14 19:31N 39°15' W 076°32'0 0.0
2014-Sep-14 18:31N 39°15' W 076°32'0 0.0
2014-Sep-14 17:32N 39°15' W 076°32'0 0.0
2014-Sep-14 16:31N 39°15' W 076°32'0 0.0
2014-Sep-14 15:31N 39°15' W 076°32'0 0.0
2014-Sep-14 14:25N 39°15' W 076°32'0 0.0
2014-Sep-14 13:31N 39°15' W 076°32'0 0.0
2014-Sep-14 12:31N 39°15' W 076°32'0 0.0
2014-Sep-14 11:31N 39°15' W 076°32'0 0.0
2014-Sep-14 10:31N 39°15' W 076°32'0 0.0
2014-Sep-14 09:31N 39°15' W 076°32'0 0.0
2014-Sep-14 08:31N 39°15' W 076°32'0 0.0
2014-Sep-14 07:31N 39°15' W 076°32'0 0.0
2014-Sep-14 06:31N 39°15' W 076°32'0 0.0
2014-Sep-14 05:31N 39°15' W 076°32'0 0.0
2014-Sep-14 04:31N 39°15' W 076°32'  
Track history (hours):
 
Tides and Currents Weather Stations Pressure Air Temp Water Temp Dewpoint Dewpoint Depression Visibility Wind Speed Wind Dir Waves Ship Positions

Heroic Leader

Last reported at 2014-Sep-24 04:28 UTC. Time now 2014-Oct-25 03:38 UTC.
Position N 29°25' W 094°49'.
Warning: this ship's position is 30 days out of date.

Length 200 m; draft 9.5 m.

Type: Cargo ship. MMSI: 311052700.

Date/timePositionNaut miles runAvg speedWind from/ knotsBaromVisibWave heightAir tempDewpointWater temp
2014-Sep-24 04:28N 29°25' W 094°49'1112.6
2014-Sep-24 03:33N 29°35' W 094°56'1110.6
2014-Sep-24 02:33N 29°44' W 095°02'6 6.1
2014-Sep-24 01:33N 29°44' W 095°09'6 5.7
2014-Sep-24 00:33N 29°44' W 095°15'9 0.5
2014-Sep-23 05:33N 29°46' W 095°05'9 8.5
2014-Sep-23 04:33N 29°39' W 094°58'1313.3
2014-Sep-23 03:33N 29°28' W 094°51'1211.9
2014-Sep-23 02:33N 29°20' W 094°41'19 1.9
2014-Sep-22 16:32N 29°10' W 094°23'  
2014-Sep-19 23:33N 25°20' W 079°60'2014.7
2014-Sep-19 22:10N 25°40' W 079°55'913.9
2014-Sep-19 21:31N 25°49' W 079°53'1313.2
2014-Sep-19 20:33N 26°02' W 079°51'1313.1
2014-Sep-19 19:33N 26°15' W 079°50'1212.4
2014-Sep-19 18:33N 26°27' W 079°49'1212.4
2014-Sep-19 17:33N 26°40' W 079°48'1211.9
2014-Sep-19 16:33N 26°52' W 079°48'1211.9
2014-Sep-19 15:33N 27°03' W 079°50'  
2014-Sep-16 15:09N 36°48' W 075°47'1015.9
2014-Sep-16 14:32N 36°55' W 075°56'1414.5
2014-Sep-16 13:33N 37°06' W 076°07'10915.6
2014-Sep-16 06:33N 38°54' W 076°24'1313.0
2014-Sep-16 05:33N 39°07' W 076°24'10 9.9
2014-Sep-16 04:33N 39°14' W 076°33'1 0.9
2014-Sep-16 03:32N 39°15' W 076°32'0 0.0
2014-Sep-16 02:32N 39°15' W 076°32'0 0.0
2014-Sep-16 01:32N 39°15' W 076°32'0 0.0
2014-Sep-16 00:32N 39°15' W 076°32'0 0.0
2014-Sep-15 23:32N 39°15' W 076°32'0 0.0
2014-Sep-15 22:32N 39°15' W 076°32'0 0.0
2014-Sep-15 21:32N 39°15' W 076°32'0 0.0
2014-Sep-15 20:31N 39°15' W 076°32'0 0.0
2014-Sep-15 19:32N 39°15' W 076°32'0 0.0
2014-Sep-15 18:26N 39°15' W 076°32'0 0.0
2014-Sep-15 17:26N 39°15' W 076°32'0 0.0
2014-Sep-15 16:31N 39°15' W 076°32'0 0.0
2014-Sep-15 15:32N 39°15' W 076°32'0 0.0
2014-Sep-15 14:31N 39°15' W 076°32'0 0.0
2014-Sep-15 13:31N 39°15' W 076°32'0 0.0
2014-Sep-15 12:31N 39°15' W 076°32'0 0.0
2014-Sep-15 11:31N 39°15' W 076°32'0 0.0
2014-Sep-15 10:31N 39°15' W 076°32'0 0.0
2014-Sep-15 09:31N 39°15' W 076°32'0 0.0
2014-Sep-15 08:31N 39°15' W 076°32'0 0.0
2014-Sep-15 07:31N 39°15' W 076°32'0 0.0
2014-Sep-15 06:31N 39°15' W 076°32'0 0.0
2014-Sep-15 05:31N 39°15' W 076°32'0 0.0
2014-Sep-15 04:31N 39°15' W 076°32'0 0.0
2014-Sep-15 03:31N 39°15' W 076°32'0 0.0
2014-Sep-15 02:32N 39°15' W 076°32'0 0.0
2014-Sep-15 01:31N 39°15' W 076°32'0 0.0
2014-Sep-15 00:31N 39°15' W 076°32'0 0.0
2014-Sep-14 23:31N 39°15' W 076°32'0 0.0
2014-Sep-14 22:31N 39°15' W 076°32'0 0.0
2014-Sep-14 21:31N 39°15' W 076°32'0 0.0
2014-Sep-14 20:31N 39°15' W 076°32'0 0.0
2014-Sep-14 19:31N 39°15' W 076°32'0 0.0
2014-Sep-14 18:31N 39°15' W 076°32'0 0.0
2014-Sep-14 17:32N 39°15' W 076°32'0 0.0
2014-Sep-14 16:31N 39°15' W 076°32'0 0.0
2014-Sep-14 15:31N 39°15' W 076°32'0 0.0
2014-Sep-14 14:25N 39°15' W 076°32'0 0.0
2014-Sep-14 13:31N 39°15' W 076°32'0 0.0
2014-Sep-14 12:31N 39°15' W 076°32'0 0.0
2014-Sep-14 11:31N 39°15' W 076°32'0 0.0
2014-Sep-14 10:31N 39°15' W 076°32'0 0.0
2014-Sep-14 09:31N 39°15' W 076°32'0 0.0
2014-Sep-14 08:31N 39°15' W 076°32'0 0.0
2014-Sep-14 07:31N 39°15' W 076°32'0 0.0
2014-Sep-14 06:31N 39°15' W 076°32'0 0.0
2014-Sep-14 05:31N 39°15' W 076°32'0 0.0
2014-Sep-14 04:31N 39°15' W 076°32'  

Dump ship's entire track history